createdAt,value
2019-03-15T00:04:10.443Z,98692.92
2019-03-15T00:09:30.493Z,98695.05
2019-03-15T00:14:49.130Z,98702.04
2019-03-15T00:20:09.899Z,98722.30
2019-03-15T00:25:28.598Z,98706.17
2019-03-15T00:30:47.214Z,98722.98
2019-03-15T00:36:05.591Z,98726.03
2019-03-15T00:41:24.195Z,98719.25
2019-03-15T00:46:43.070Z,98717.42
2019-03-15T00:52:01.686Z,98733.33
2019-03-15T00:57:21.440Z,98734.05
2019-03-15T01:02:44.457Z,98725.33
2019-03-15T01:08:06.284Z,98723.39
2019-03-15T01:13:26.883Z,98716.02
2019-03-15T01:18:45.497Z,98715.48
2019-03-15T01:24:04.897Z,98714.02
2019-03-15T01:29:26.663Z,98710.23
2019-03-15T01:34:50.327Z,98690.75
2019-03-15T01:40:08.927Z,98702.53
2019-03-15T01:45:28.677Z,98691.17
2019-03-15T01:50:48.770Z,98699.96
2019-03-15T01:56:07.138Z,98689.66
2019-03-15T02:01:25.776Z,98687.26
2019-03-15T02:06:47.307Z,98682.19
2019-03-15T02:12:07.198Z,98684.31
2019-03-15T02:17:33.230Z,98679.76
2019-03-15T02:22:53.828Z,98674.31
2019-03-15T02:28:12.392Z,98673.16
2019-03-15T02:33:31.042Z,98677.61
2019-03-15T02:38:49.567Z,98684.09
2019-03-15T02:44:09.493Z,98678.73
2019-03-15T02:49:29.504Z,98680.64
2019-03-15T02:54:48.922Z,98687.83
2019-03-15T03:00:09.682Z,98678.11
2019-03-15T03:05:28.417Z,98670.72
2019-03-15T03:10:47.550Z,98675.88
2019-03-15T03:16:08.374Z,98666.00
2019-03-15T03:21:27.058Z,98663.85
2019-03-15T03:26:45.613Z,98668.02
2019-03-15T03:32:04.355Z,98671.66
2019-03-15T03:42:42.077Z,98660.72
2019-03-15T03:53:20.014Z,98656.62
2019-03-15T03:58:38.639Z,98645.02
2019-03-15T04:03:57.967Z,98644.39
2019-03-15T04:09:18.065Z,98643.98
2019-03-15T04:14:38.196Z,98624.53
2019-03-15T04:19:57.812Z,98614.41
2019-03-15T04:25:16.521Z,98613.48
2019-03-15T04:30:36.533Z,98606.42
2019-03-15T04:35:55.087Z,98617.86
2019-03-15T04:41:16.932Z,98632.56
2019-03-15T04:46:36.968Z,98625.36
2019-03-15T04:51:58.777Z,98615.55
2019-03-15T04:57:19.562Z,98612.70
2019-03-15T05:02:38.193Z,98616.77
2019-03-15T05:07:57.042Z,98624.77
2019-03-15T05:13:18.679Z,98613.73
2019-03-15T05:18:38.690Z,98619.67
2019-03-15T05:24:00.696Z,98607.42
2019-03-15T05:29:39.490Z,98604.91
2019-03-15T05:34:59.502Z,98589.50
2019-03-15T05:40:18.114Z,98581.19
2019-03-15T05:45:38.632Z,98570.94
2019-03-15T05:50:57.189Z,98561.41
2019-03-15T05:56:17.292Z,98553.19
2019-03-15T06:01:35.959Z,98544.17
2019-03-15T06:06:58.920Z,98537.58
2019-03-15T06:12:39.124Z,98525.73
2019-03-15T06:17:58.239Z,98531.89
2019-03-15T06:23:19.284Z,98531.70
2019-03-15T06:28:39.369Z,98525.73
2019-03-15T06:34:01.303Z,98529.06
2019-03-15T06:39:21.148Z,98519.56
2019-03-15T06:44:40.890Z,98514.06
2019-03-15T06:49:59.539Z,98514.06
2019-03-15T06:55:20.541Z,98513.06
2019-03-15T07:00:39.155Z,98501.40
2019-03-15T07:06:17.336Z,98505.73
2019-03-15T07:11:40.533Z,98502.30
2019-03-15T07:17:01.498Z,98484.13
2019-03-15T07:22:20.282Z,98472.66
2019-03-15T07:27:42.396Z,98475.52
2019-03-15T07:33:00.286Z,98475.52
2019-03-15T07:38:18.911Z,98456.44
2019-03-15T07:43:37.970Z,98448.41
2019-03-15T07:48:59.228Z,98422.20
2019-03-15T07:54:17.844Z,98418.12
2019-03-15T07:59:38.019Z,98424.33
2019-03-15T08:04:59.164Z,98419.71
2019-03-15T08:10:20.148Z,98389.92
2019-03-15T08:15:36.799Z,98394.39
2019-03-15T08:20:55.341Z,98387.77
2019-03-15T08:26:16.697Z,98361.45
2019-03-15T08:31:36.710Z,98386.29
2019-03-15T08:36:57.403Z,98385.55
2019-03-15T08:42:16.501Z,98379.76
2019-03-15T08:52:54.292Z,98379.95
2019-03-15T08:58:21.694Z,98405.09
2019-03-15T09:03:42.492Z,98385.81
2019-03-15T09:09:01.979Z,98381.78
2019-03-15T09:14:20.555Z,98386.77
2019-03-15T09:19:42.594Z,98379.65
2019-03-15T09:25:02.548Z,98406.19
2019-03-15T09:30:24.204Z,98394.22
2019-03-15T09:35:44.557Z,98400.80
2019-03-15T09:41:08.076Z,98395.98
2019-03-15T09:46:26.606Z,98386.22
2019-03-15T09:51:45.223Z,98374.73
2019-03-15T09:57:03.518Z,98380.47
2019-03-15T10:02:30.287Z,98388.19
2019-03-15T10:07:43.459Z,98394.33
2019-03-15T10:13:06.245Z,98392.78
2019-03-15T10:18:22.780Z,98385.10
2019-03-15T10:23:44.494Z,98390.28
2019-03-15T10:29:14.550Z,98382.36
2019-03-15T10:34:26.203Z,98383.36
2019-03-15T10:39:47.043Z,98394.20
2019-03-15T10:45:09.534Z,98399.01
2019-03-15T10:50:28.172Z,98401.16
2019-03-15T10:55:59.659Z,98390.88
2019-03-15T11:01:08.838Z,98412.80
2019-03-15T11:06:29.859Z,98404.52
2019-03-15T11:11:51.775Z,98424.98
2019-03-15T11:17:10.971Z,98427.56
2019-03-15T11:22:48.927Z,98425.02
2019-03-15T11:28:10.188Z,98436.84
2019-03-15T11:33:31.412Z,98438.02
2019-03-15T11:38:53.850Z,98446.89
2019-03-15T11:44:13.162Z,98450.31
2019-03-15T11:49:34.906Z,98466.12
2019-03-15T11:54:54.481Z,98465.21
2019-03-15T12:00:15.628Z,98459.49
2019-03-15T12:05:38.088Z,98451.45
2019-03-15T12:10:57.994Z,98431.95
2019-03-15T12:16:17.533Z,98429.98
2019-03-15T12:21:38.093Z,98440.98
2019-03-15T12:38:09.310Z,98436.27
2019-03-15T12:43:30.403Z,98438.44
2019-03-15T12:48:48.947Z,98434.04
2019-03-15T12:54:08.540Z,98436.70
2019-03-15T12:59:27.202Z,98435.98
2019-03-15T13:04:45.779Z,98437.60
2019-03-15T13:10:06.316Z,98439.17
2019-03-15T13:15:27.394Z,98426.80
2019-03-15T13:20:46.011Z,98423.05
2019-03-15T13:26:05.646Z,98419.43
2019-03-15T13:31:24.296Z,98416.48
2019-03-15T13:36:43.129Z,98440.36
2019-03-15T13:42:02.667Z,98426.08
2019-03-15T13:47:21.540Z,98422.81
2019-03-15T13:52:42.798Z,98431.70
2019-03-15T13:58:05.307Z,98430.58
2019-03-15T14:03:27.957Z,98420.31
2019-03-15T14:08:48.047Z,98433.49
2019-03-15T14:14:07.731Z,98426.51
2019-03-15T14:19:45.880Z,98402.55
2019-03-15T14:25:07.896Z,98406.11
2019-03-15T14:30:28.017Z,98434.83
2019-03-15T14:35:48.098Z,98436.75
2019-03-15T14:41:08.188Z,98426.62
2019-03-15T14:46:28.110Z,98425.80
2019-03-15T14:51:50.204Z,98426.49
2019-03-15T14:57:08.206Z,98424.72
2019-03-15T15:02:28.308Z,98411.22
2019-03-15T15:07:46.893Z,98411.22
2019-03-15T15:13:05.538Z,98419.53
2019-03-15T15:18:26.192Z,98416.22
2019-03-15T15:23:47.051Z,98431.95
2019-03-15T15:29:06.935Z,98419.20
2019-03-15T15:34:27.028Z,98428.06
2019-03-15T15:39:49.810Z,98416.28
2019-03-15T15:45:14.873Z,98403.55
2019-03-15T15:50:34.539Z,98404.07
2019-03-15T15:55:54.555Z,98396.05
2019-03-15T16:01:15.732Z,98419.09
2019-03-15T16:06:35.450Z,98410.57
2019-03-15T16:11:55.288Z,98421.39
2019-03-15T16:17:14.855Z,98416.09
2019-03-15T16:22:33.502Z,98392.55
2019-03-15T16:27:54.055Z,98389.87
2019-03-15T16:33:16.677Z,98392.37
2019-03-15T16:38:35.237Z,98397.90
2019-03-15T16:43:53.860Z,98407.66
2019-03-15T16:49:17.104Z,98389.28
2019-03-15T16:54:40.715Z,98404.12
2019-03-15T16:59:59.289Z,98400.19
2019-03-15T17:05:17.928Z,98410.14
2019-03-15T17:10:38.041Z,98420.27
2019-03-15T17:16:00.846Z,98474.34
2019-03-15T17:21:19.965Z,98478.58
2019-03-15T17:26:38.593Z,98491.13
2019-03-15T17:31:58.640Z,98510.38
2019-03-15T17:37:17.589Z,98521.87
2019-03-15T17:42:57.383Z,98531.79
2019-03-15T17:48:17.001Z,98528.50
2019-03-15T17:53:38.279Z,98540.30
2019-03-15T17:59:12.250Z,98554.83
2019-03-15T18:04:28.112Z,98545.11
2019-03-15T18:09:46.747Z,98589.34
2019-03-15T18:15:09.875Z,98614.97
2019-03-15T18:20:26.449Z,98639.59
2019-03-15T18:25:45.017Z,98663.89
2019-03-15T18:31:03.941Z,98674.21
2019-03-15T18:36:26.759Z,98660.11
2019-03-15T18:41:50.286Z,98655.47
2019-03-15T18:47:08.205Z,98645.70
2019-03-15T18:52:27.275Z,98664.33
2019-03-15T18:57:45.918Z,98671.28
2019-03-15T19:03:26.872Z,98684.19
2019-03-15T19:08:48.833Z,98713.05
2019-03-15T19:14:07.560Z,98724.72
2019-03-15T19:19:27.731Z,98725.88
2019-03-15T19:25:06.713Z,98733.41
2019-03-15T19:30:25.434Z,98735.36
2019-03-15T19:35:44.072Z,98740.56
2019-03-15T19:41:03.313Z,98742.81
2019-03-15T19:46:23.050Z,98756.83
2019-03-15T19:51:41.765Z,98763.00
2019-03-15T19:57:04.042Z,98786.75
2019-03-15T20:02:24.250Z,98786.02
2019-03-15T20:08:02.166Z,98798.72
2019-03-15T20:13:24.452Z,98819.25
2019-03-15T20:18:43.896Z,98836.13
2019-03-15T20:24:03.984Z,98855.30
2019-03-15T20:29:25.746Z,98844.75
2019-03-15T20:34:50.733Z,98848.50
2019-03-15T20:40:03.174Z,98856.42
2019-03-15T20:45:24.863Z,98861.81
2019-03-15T20:50:47.123Z,98860.80
2019-03-15T20:56:07.478Z,98859.48
2019-03-15T21:01:25.766Z,98879.47
2019-03-15T21:06:44.306Z,98864.45
2019-03-15T21:12:02.662Z,98868.61
2019-03-15T21:17:23.241Z,98872.36
2019-03-15T21:22:41.865Z,98871.77
2019-03-15T21:28:01.354Z,98875.92
2019-03-15T21:33:20.177Z,98876.43
2019-03-15T21:38:48.032Z,98858.88
2019-03-15T21:43:59.649Z,98872.59
2019-03-15T21:49:20.042Z,98881.42
2019-03-15T21:54:37.244Z,98901.42
2019-03-15T21:59:55.884Z,98915.21
2019-03-15T22:05:15.253Z,98919.28
2019-03-15T22:10:36.689Z,98916.64
2019-03-15T22:15:55.257Z,98925.38
2019-03-15T22:21:13.804Z,98937.94
2019-03-15T22:26:36.954Z,98936.92
2019-03-15T22:31:58.727Z,98934.78
2019-03-15T22:37:24.226Z,98955.62
2019-03-15T22:42:45.924Z,98947.38
2019-03-15T22:48:05.763Z,98954.80
2019-03-15T22:53:26.336Z,98962.81
2019-03-15T22:58:46.435Z,98962.48
2019-03-15T23:04:08.470Z,98963.39
2019-03-15T23:09:30.999Z,98969.07
2019-03-15T23:14:49.644Z,98992.14
2019-03-15T23:20:15.565Z,99002.50
2019-03-15T23:25:35.845Z,98996.16
2019-03-15T23:30:55.980Z,99015.28
2019-03-15T23:36:17.542Z,99015.58
2019-03-15T23:41:40.046Z,99011.78
2019-03-15T23:47:00.520Z,99004.67
2019-03-15T23:52:20.287Z,99009.43
2019-03-15T23:57:38.902Z,99009.64
